createdAt,value
2019-02-11T00:01:03.397Z,100.00
2019-02-11T00:03:32.644Z,100.00
2019-02-11T00:06:21.227Z,100.00
2019-02-11T00:08:50.469Z,100.00
2019-02-11T00:11:39.074Z,100.00
2019-02-11T00:14:08.318Z,100.00
2019-02-11T00:16:37.558Z,100.00
2019-02-11T00:19:06.785Z,100.00
2019-02-11T00:21:36.019Z,100.00
2019-02-11T00:24:24.599Z,100.00
2019-02-11T00:27:06.053Z,100.00
2019-02-11T00:29:47.539Z,100.00
2019-02-11T00:32:35.912Z,100.00
2019-02-11T00:38:14.163Z,100.00
2019-02-11T00:41:02.737Z,100.00
2019-02-11T00:43:31.994Z,100.00
2019-02-11T00:46:01.280Z,100.00
2019-02-11T00:48:30.533Z,100.00
2019-02-11T00:50:59.785Z,100.00
2019-02-11T00:53:48.392Z,100.00
2019-02-11T00:56:17.647Z,100.00
2019-02-11T00:59:06.228Z,100.00
2019-02-11T01:01:35.465Z,100.00
2019-02-11T01:04:24.065Z,100.00
2019-02-11T01:06:53.333Z,100.00
2019-02-11T01:09:41.902Z,100.00
2019-02-11T01:12:30.503Z,100.00
2019-02-11T01:14:59.721Z,100.00
2019-02-11T01:17:28.977Z,100.00
2019-02-11T01:20:17.561Z,100.00
2019-02-11T01:23:06.159Z,100.00
2019-02-11T01:25:35.381Z,100.00
2019-02-11T01:28:04.639Z,100.00
2019-02-11T01:30:33.911Z,100.00
2019-02-11T01:33:03.154Z,100.00
2019-02-11T01:35:51.713Z,100.00
2019-02-11T01:38:40.302Z,100.00
2019-02-11T01:41:09.546Z,100.00
2019-02-11T01:43:38.793Z,100.00
2019-02-11T01:46:08.024Z,100.00
2019-02-11T01:48:37.258Z,100.00
2019-02-11T01:51:25.836Z,100.00
2019-02-11T01:53:55.102Z,100.00
2019-02-11T01:56:43.696Z,100.00
2019-02-11T01:59:12.924Z,100.00
2019-02-11T02:01:42.157Z,100.00
2019-02-11T02:04:30.752Z,100.00
2019-02-11T02:07:00.006Z,100.00
2019-02-11T02:09:29.247Z,100.00
2019-02-11T02:11:58.486Z,100.00
2019-02-11T02:14:27.739Z,100.00
2019-02-11T02:16:56.998Z,100.00
2019-02-11T02:19:45.630Z,100.00
2019-02-11T02:22:14.831Z,100.00
2019-02-11T02:24:44.071Z,100.00
2019-02-11T02:27:32.662Z,100.00
2019-02-11T02:30:01.943Z,100.00
2019-02-11T02:32:31.180Z,100.00
2019-02-11T02:35:19.778Z,100.00
2019-02-11T02:38:08.338Z,100.00
2019-02-11T02:40:37.600Z,100.00
2019-02-11T02:43:06.816Z,100.00
2019-02-11T02:45:36.084Z,100.00
2019-02-11T02:48:24.664Z,100.00
2019-02-11T02:50:53.920Z,100.00
2019-02-11T02:53:23.175Z,100.00
2019-02-11T02:56:11.770Z,100.00
2019-02-11T02:58:41.013Z,100.00
2019-02-11T03:04:23.699Z,100.00
2019-02-11T03:06:52.938Z,100.00
2019-02-11T03:09:41.511Z,100.00
2019-02-11T03:12:30.172Z,100.00
2019-02-11T03:14:59.420Z,100.00
2019-02-11T03:17:28.661Z,100.00
2019-02-11T03:19:57.912Z,100.00
2019-02-11T03:22:27.153Z,100.00
2019-02-11T03:25:09.028Z,100.00
2019-02-11T03:27:50.971Z,100.00
2019-02-11T03:30:20.193Z,99.93
2019-02-11T03:32:49.457Z,100.00
2019-02-11T03:35:38.025Z,99.98
2019-02-11T03:38:07.253Z,98.35
2019-02-11T03:41:16.511Z,100.00
2019-02-11T03:46:40.896Z,99.87
2019-02-11T03:49:10.145Z,100.00
2019-02-11T03:51:58.753Z,100.00
2019-02-11T03:54:47.347Z,99.55
2019-02-11T03:57:35.942Z,100.00
2019-02-11T04:00:45.226Z,100.00
2019-02-11T04:03:14.530Z,100.00
2019-02-11T04:05:43.789Z,100.00
2019-02-11T04:08:13.078Z,99.84
2019-02-11T04:11:20.773Z,99.22
2019-02-11T04:14:09.362Z,99.83
2019-02-11T04:16:38.573Z,100.00
2019-02-11T04:19:27.160Z,100.00
2019-02-11T04:25:10.089Z,100.00
2019-02-11T04:27:58.774Z,100.00
2019-02-11T04:30:28.074Z,100.00
2019-02-11T04:33:16.656Z,100.00
2019-02-11T04:35:45.885Z,100.00
2019-02-11T04:38:34.494Z,100.00
2019-02-11T04:41:03.717Z,100.00
2019-02-11T04:47:05.151Z,100.00
2019-02-11T04:49:34.399Z,97.92
2019-02-11T04:52:23.055Z,100.00
2019-02-11T04:55:11.644Z,100.00
2019-02-11T04:57:40.880Z,100.00
2019-02-11T05:00:29.505Z,100.00
2019-02-11T05:02:58.741Z,99.83
2019-02-11T05:05:27.959Z,100.00
2019-02-11T05:08:16.570Z,100.00
2019-02-11T05:10:45.807Z,100.00
2019-02-11T05:13:34.426Z,100.00
2019-02-11T05:16:03.732Z,100.00
2019-02-11T05:18:32.988Z,100.00
2019-02-11T05:21:14.294Z,100.00
2019-02-11T05:23:55.710Z,100.00
2019-02-11T05:26:24.936Z,100.00
2019-02-11T05:32:26.872Z,99.45
2019-02-11T05:34:56.116Z,100.00
2019-02-11T05:37:44.722Z,98.50
2019-02-11T05:43:26.825Z,100.00
2019-02-11T05:45:56.122Z,100.00
2019-02-11T05:48:44.668Z,100.00
2019-02-11T05:51:13.891Z,100.00
2019-02-11T05:53:43.184Z,99.29
2019-02-11T05:56:31.760Z,100.00
2019-02-11T05:59:01.016Z,100.00
2019-02-11T06:01:30.273Z,100.00
2019-02-11T06:04:18.889Z,100.00
2019-02-11T06:06:48.155Z,100.00
2019-02-11T06:09:36.767Z,100.00
2019-02-11T06:12:06.032Z,100.00
2019-02-11T06:15:03.732Z,100.00
2019-02-11T06:18:04.050Z,100.00
2019-02-11T06:20:33.333Z,100.00
2019-02-11T06:23:02.582Z,99.04
2019-02-11T06:29:04.829Z,98.52
2019-02-11T06:31:53.420Z,97.48
2019-02-11T06:34:42.018Z,98.16
2019-02-11T06:37:30.612Z,98.12
2019-02-11T06:39:59.947Z,97.89
2019-02-11T06:42:48.520Z,97.51
2019-02-11T06:45:17.788Z,99.40
2019-02-11T06:48:06.409Z,97.87
2019-02-11T06:50:55.044Z,98.44
2019-02-11T06:53:24.272Z,99.07
2019-02-11T06:55:53.601Z,99.54
2019-02-11T06:58:42.205Z,99.75
2019-02-11T07:01:11.471Z,99.47
2019-02-11T07:04:00.062Z,100.00
2019-02-11T07:06:29.302Z,98.55
2019-02-11T07:09:17.900Z,99.96
2019-02-11T07:11:47.162Z,99.12
2019-02-11T07:14:35.799Z,100.00
2019-02-11T07:17:24.366Z,99.33
2019-02-11T07:19:53.608Z,95.68
2019-02-11T07:22:22.830Z,97.21
2019-02-11T07:24:52.104Z,96.13
2019-02-11T07:27:21.353Z,98.33
2019-02-11T07:30:10.927Z,96.83
2019-02-11T07:32:59.511Z,96.74
2019-02-11T07:35:48.158Z,98.79
2019-02-11T07:38:36.773Z,97.67
2019-02-11T07:47:38.315Z,97.75
2019-02-11T07:50:26.687Z,97.37
2019-02-11T07:52:55.934Z,95.06
2019-02-11T07:55:25.248Z,98.28
2019-02-11T07:57:55.483Z,96.36
2019-02-11T08:00:25.724Z,97.11
2019-02-11T08:02:54.987Z,96.78
2019-02-11T08:05:24.322Z,96.50
2019-02-11T08:07:53.557Z,96.61
2019-02-11T08:10:22.839Z,95.84
2019-02-11T08:12:54.064Z,96.94
2019-02-11T08:15:24.295Z,99.26
2019-02-11T08:17:54.503Z,98.40
2019-02-11T08:20:23.750Z,97.92
2019-02-11T08:22:52.972Z,97.80
2019-02-11T08:25:22.231Z,96.33
2019-02-11T08:27:51.464Z,95.24
2019-02-11T08:30:20.712Z,94.06
2019-02-11T08:32:49.942Z,96.48
2019-02-11T08:35:19.246Z,97.18
2019-02-11T08:37:49.421Z,97.83
2019-02-11T08:40:20.575Z,96.27
2019-02-11T08:42:49.804Z,97.04
2019-02-11T08:45:19.045Z,96.94
2019-02-11T08:47:48.295Z,96.82
2019-02-11T08:50:18.373Z,97.58
2019-02-11T08:52:47.628Z,96.24
2019-02-11T08:55:17.023Z,94.75
2019-02-11T08:57:46.259Z,94.85
2019-02-11T09:00:15.560Z,90.78
2019-02-11T09:02:44.871Z,88.02
2019-02-11T09:05:14.113Z,90.01
2019-02-11T09:07:43.350Z,90.74
2019-02-11T09:10:13.750Z,95.68
2019-02-11T09:12:43.000Z,89.81
2019-02-11T09:15:13.171Z,89.13
2019-02-11T09:17:42.463Z,90.10
2019-02-11T09:20:11.823Z,90.28
2019-02-11T09:22:41.062Z,93.04
2019-02-11T09:25:10.847Z,93.67
2019-02-11T09:27:40.092Z,94.69
2019-02-11T09:30:12.139Z,94.43
2019-02-11T09:32:41.399Z,93.32
2019-02-11T09:35:10.703Z,95.94
2019-02-11T09:37:39.946Z,96.00
2019-02-11T09:40:11.934Z,95.91
2019-02-11T09:42:41.153Z,96.37
2019-02-11T09:45:16.027Z,96.60
2019-02-11T09:47:46.290Z,95.86
2019-02-11T09:50:22.225Z,93.17
2019-02-11T09:52:51.444Z,92.76
2019-02-11T09:55:25.900Z,94.56
2019-02-11T09:57:55.120Z,92.20
2019-02-11T10:00:24.623Z,91.54
2019-02-11T10:02:53.851Z,90.83
2019-02-11T10:05:23.115Z,92.78
2019-02-11T10:07:53.309Z,92.81
2019-02-11T10:10:23.582Z,92.73
2019-02-11T10:12:52.820Z,92.84
2019-02-11T10:15:22.452Z,91.76
2019-02-11T10:17:51.705Z,93.99
2019-02-11T10:20:20.932Z,93.84
2019-02-11T10:22:51.175Z,91.29
2019-02-11T10:25:28.460Z,91.15
2019-02-11T10:28:00.526Z,93.45
2019-02-11T10:30:31.784Z,92.59
2019-02-11T10:33:01.026Z,95.60
2019-02-11T10:35:30.291Z,94.03
2019-02-11T10:37:59.523Z,94.41
2019-02-11T10:40:28.769Z,94.86
2019-02-11T10:42:58.027Z,94.44
2019-02-11T10:45:27.316Z,95.25
2019-02-11T10:47:56.562Z,92.31
2019-02-11T10:50:25.794Z,95.16
2019-02-11T10:52:55.026Z,93.73
2019-02-11T10:55:24.274Z,95.19
2019-02-11T10:57:53.512Z,97.17
2019-02-11T11:00:24.383Z,98.36
2019-02-11T11:02:54.633Z,96.68
2019-02-11T11:05:23.836Z,98.65
2019-02-11T11:07:54.057Z,98.10
2019-02-11T11:10:33.532Z,96.65
2019-02-11T11:13:02.760Z,96.59
2019-02-11T11:15:32.048Z,96.87
2019-02-11T11:18:01.298Z,96.04
2019-02-11T11:20:30.899Z,93.58
2019-02-11T11:23:01.116Z,96.20
2019-02-11T11:25:31.357Z,96.97
2019-02-11T11:28:01.562Z,95.16
2019-02-11T11:30:31.074Z,95.72
2019-02-11T11:33:00.324Z,95.49
2019-02-11T11:35:29.578Z,97.12
2019-02-11T11:37:58.825Z,97.53
2019-02-11T11:40:28.054Z,96.36
2019-02-11T11:42:57.319Z,97.33
2019-02-11T11:45:27.892Z,97.42
2019-02-11T11:47:57.149Z,97.80
2019-02-11T11:50:26.368Z,97.95
2019-02-11T11:52:55.617Z,97.94
2019-02-11T11:55:24.929Z,97.08
2019-02-11T11:57:55.171Z,96.93
2019-02-11T12:00:27.455Z,98.41
2019-02-11T12:03:02.738Z,96.65
2019-02-11T12:05:27.632Z,95.91
2019-02-11T12:07:56.931Z,96.25
2019-02-11T12:10:26.493Z,95.74
2019-02-11T12:12:55.742Z,96.49
2019-02-11T12:15:27.166Z,96.68
2019-02-11T12:17:57.700Z,95.61
2019-02-11T12:20:26.982Z,95.54
2019-02-11T12:22:57.167Z,95.60
2019-02-11T12:25:26.353Z,95.02
2019-02-11T12:27:55.612Z,93.61
2019-02-11T12:30:26.619Z,90.66
2019-02-11T12:32:56.391Z,92.91
2019-02-11T12:35:25.894Z,92.48
2019-02-11T12:37:55.074Z,91.29
2019-02-11T12:40:25.330Z,92.80
2019-02-11T12:42:55.547Z,92.74
2019-02-11T12:45:25.966Z,92.86
2019-02-11T12:47:56.158Z,92.16
2019-02-11T12:50:26.557Z,92.32
2019-02-11T12:52:55.793Z,87.37
2019-02-11T12:55:25.033Z,89.33
2019-02-11T12:57:54.249Z,90.71
2019-02-11T13:00:24.208Z,90.53
2019-02-11T13:02:54.447Z,91.15
2019-02-11T13:05:42.619Z,89.28
2019-02-11T13:07:54.590Z,90.23
2019-02-11T13:10:30.108Z,90.34
2019-02-11T13:12:59.347Z,90.02
2019-02-11T13:15:56.489Z,89.86
2019-02-11T13:18:00.535Z,91.25
2019-02-11T13:20:31.068Z,90.27
2019-02-11T13:23:00.503Z,91.56
2019-02-11T13:25:29.748Z,91.49
2019-02-11T13:27:59.011Z,95.24
2019-02-11T13:30:29.238Z,98.19
2019-02-11T13:32:59.474Z,99.57
2019-02-11T13:35:29.697Z,97.33
2019-02-11T13:37:58.972Z,97.92
2019-02-11T13:40:28.209Z,97.81
2019-02-11T13:42:57.510Z,98.72
2019-02-11T13:45:27.164Z,97.05
2019-02-11T13:47:59.137Z,96.69
2019-02-11T13:50:28.901Z,95.81
2019-02-11T13:52:58.242Z,96.79
2019-02-11T13:55:30.747Z,97.42
2019-02-11T13:57:58.504Z,94.74
2019-02-11T14:00:32.105Z,94.92
2019-02-11T14:03:04.372Z,96.38
2019-02-11T14:05:34.874Z,93.17
2019-02-11T14:08:04.486Z,93.04
2019-02-11T14:10:33.874Z,92.37
2019-02-11T14:13:03.394Z,91.45
2019-02-11T14:15:34.733Z,93.89
2019-02-11T14:18:11.495Z,92.59
2019-02-11T14:20:37.281Z,91.62
2019-02-11T14:23:06.935Z,90.87
2019-02-11T14:25:44.088Z,92.74
2019-02-11T14:28:07.189Z,93.06
2019-02-11T14:30:36.565Z,92.62
2019-02-11T14:33:05.868Z,90.20
2019-02-11T14:35:35.120Z,96.75
2019-02-11T14:38:04.353Z,91.73
2019-02-11T14:40:33.610Z,90.85
2019-02-11T14:43:03.881Z,92.88
2019-02-11T14:45:35.787Z,92.42
2019-02-11T14:48:06.069Z,91.00
2019-02-11T14:50:35.325Z,90.67
2019-02-11T14:53:04.594Z,92.09
2019-02-11T14:55:33.843Z,91.09
2019-02-11T14:58:03.068Z,88.93
2019-02-11T15:00:32.286Z,89.52
2019-02-11T15:03:01.522Z,88.52
2019-02-11T15:05:30.771Z,89.37
2019-02-11T15:08:00.070Z,91.22
2019-02-11T15:10:29.298Z,81.48
2019-02-11T15:12:58.557Z,81.88
2019-02-11T15:15:27.799Z,78.37
2019-02-11T15:17:57.053Z,78.46
2019-02-11T15:20:26.383Z,77.22
2019-02-11T15:22:55.633Z,77.80
2019-02-11T15:25:24.867Z,74.79
2019-02-11T15:27:54.113Z,77.11
2019-02-11T15:30:25.383Z,76.55
2019-02-11T15:32:54.621Z,78.95
2019-02-11T15:35:23.955Z,76.14
2019-02-11T15:37:53.176Z,75.77
2019-02-11T15:40:23.228Z,73.74
2019-02-11T15:42:52.468Z,74.57
2019-02-11T15:45:21.700Z,73.31
2019-02-11T15:47:51.925Z,71.83
2019-02-11T15:50:21.156Z,72.17
2019-02-11T15:52:51.324Z,73.10
2019-02-11T15:55:21.695Z,72.04
2019-02-11T15:57:50.923Z,74.42
2019-02-11T16:00:21.806Z,72.66
2019-02-11T16:02:51.880Z,72.34
2019-02-11T16:05:21.310Z,72.54
2019-02-11T16:07:50.548Z,70.97
2019-02-11T16:10:22.784Z,72.81
2019-02-11T16:12:52.059Z,72.52
2019-02-11T16:15:21.468Z,71.26
2019-02-11T16:17:50.736Z,71.80
2019-02-11T16:20:20.977Z,72.72
2019-02-11T16:22:51.236Z,72.80
2019-02-11T16:25:21.437Z,70.45
2019-02-11T16:27:50.674Z,70.19
2019-02-11T16:30:20.253Z,70.49
2019-02-11T16:32:49.506Z,69.54
2019-02-11T16:35:19.050Z,69.01
2019-02-11T16:37:48.296Z,68.32
2019-02-11T16:40:20.701Z,69.00
2019-02-11T16:42:49.950Z,70.29
2019-02-11T16:45:20.117Z,71.58
2019-02-11T16:47:50.426Z,73.06
2019-02-11T16:50:19.670Z,73.04
2019-02-11T16:52:49.193Z,74.46
2019-02-11T16:55:19.572Z,74.07
2019-02-11T16:57:48.817Z,76.76
2019-02-11T17:00:21.349Z,75.10
2019-02-11T17:02:50.564Z,76.55
2019-02-11T17:05:19.811Z,76.65
2019-02-11T17:07:51.010Z,75.07
2019-02-11T17:10:20.257Z,75.52
2019-02-11T17:12:49.483Z,75.77
2019-02-11T17:15:19.746Z,76.98
2019-02-11T17:17:49.032Z,79.40
2019-02-11T17:20:18.513Z,83.87
2019-02-11T17:22:47.729Z,87.90
2019-02-11T17:25:17.018Z,87.25
2019-02-11T17:27:46.251Z,85.47
2019-02-11T17:30:24.282Z,85.72
2019-02-11T17:32:53.528Z,86.50
2019-02-11T17:35:22.783Z,84.88
2019-02-11T17:37:52.068Z,83.33
2019-02-11T17:40:21.306Z,83.34
2019-02-11T17:42:50.559Z,80.77
2019-02-11T17:45:22.735Z,81.13
2019-02-11T17:47:51.962Z,80.32
2019-02-11T17:50:21.212Z,81.79
2019-02-11T17:52:52.799Z,82.88
2019-02-11T17:55:22.057Z,81.75
2019-02-11T17:57:52.350Z,82.48
2019-02-11T18:00:34.759Z,82.55
2019-02-11T18:03:04.006Z,80.90
2019-02-11T18:05:33.227Z,82.21
2019-02-11T18:08:02.471Z,82.85
2019-02-11T18:10:31.736Z,81.05
2019-02-11T18:13:00.988Z,81.99
2019-02-11T18:15:30.299Z,81.91
2019-02-11T18:17:59.527Z,81.12
2019-02-11T18:20:28.742Z,81.97
2019-02-11T18:22:57.996Z,81.18
2019-02-11T18:25:27.225Z,81.15
2019-02-11T18:27:56.453Z,80.01
2019-02-11T18:30:25.675Z,80.09
2019-02-11T18:32:54.957Z,81.12
2019-02-11T18:35:24.190Z,83.06
2019-02-11T18:37:53.456Z,80.46
2019-02-11T18:40:23.677Z,80.82
2019-02-11T18:42:52.931Z,79.29
2019-02-11T18:45:22.166Z,81.87
2019-02-11T18:47:51.432Z,81.40
2019-02-11T18:50:20.729Z,81.36
2019-02-11T18:52:49.990Z,82.39
2019-02-11T18:55:20.553Z,81.20
2019-02-11T18:57:49.812Z,81.84
2019-02-11T19:00:19.725Z,82.90
2019-02-11T19:02:49.220Z,81.47
2019-02-11T19:05:18.524Z,84.47
2019-02-11T19:07:47.850Z,84.40
2019-02-11T19:10:19.007Z,81.87
2019-02-11T19:12:48.276Z,83.34
2019-02-11T19:15:18.816Z,84.11
2019-02-11T19:17:48.033Z,83.46
2019-02-11T19:20:17.834Z,83.16
2019-02-11T19:22:47.058Z,84.13
2019-02-11T19:25:16.390Z,84.20
2019-02-11T19:27:45.952Z,83.06
2019-02-11T19:30:21.081Z,83.49
2019-02-11T19:32:50.366Z,84.46
2019-02-11T19:35:19.618Z,84.08
2019-02-11T19:37:48.830Z,86.02
2019-02-11T19:40:19.397Z,84.05
2019-02-11T19:42:48.694Z,85.52
2019-02-11T19:45:22.030Z,85.13
2019-02-11T19:47:51.241Z,85.71
2019-02-11T19:50:20.469Z,85.43
2019-02-11T19:52:49.728Z,85.27
2019-02-11T19:55:18.961Z,83.12
2019-02-11T19:57:48.211Z,84.20
2019-02-11T20:00:21.976Z,84.77
2019-02-11T20:02:51.359Z,82.77
2019-02-11T20:05:20.672Z,84.89
2019-02-11T20:07:49.952Z,83.08
2019-02-11T20:10:21.453Z,83.27
2019-02-11T20:12:50.761Z,82.74
2019-02-11T20:15:22.443Z,80.74
2019-02-11T20:17:51.685Z,80.99
2019-02-11T20:20:22.064Z,83.42
2019-02-11T20:22:52.259Z,82.94
2019-02-11T20:25:21.489Z,83.31
2019-02-11T20:27:51.792Z,83.90
2019-02-11T20:30:23.913Z,84.78
2019-02-11T20:32:53.159Z,84.50
2019-02-11T20:35:22.446Z,85.13
2019-02-11T20:37:52.794Z,84.83
2019-02-11T20:40:27.184Z,83.63
2019-02-11T20:42:57.407Z,85.79
2019-02-11T20:45:30.647Z,85.76
2019-02-11T20:47:59.995Z,86.44
2019-02-11T20:50:29.225Z,84.51
2019-02-11T20:52:58.480Z,84.47
2019-02-11T20:55:27.729Z,85.15
2019-02-11T20:57:58.985Z,84.52
2019-02-11T21:00:33.979Z,83.71
2019-02-11T21:03:08.501Z,82.64
2019-02-11T21:05:34.160Z,86.71
2019-02-11T21:08:03.404Z,81.72
2019-02-11T21:10:32.645Z,83.14
2019-02-11T21:13:01.903Z,84.26
2019-02-11T21:15:31.162Z,82.86
2019-02-11T21:18:00.405Z,82.16
2019-02-11T21:20:35.097Z,82.26
2019-02-11T21:23:05.377Z,82.85
2019-02-11T21:25:34.590Z,82.50
2019-02-11T21:28:03.835Z,82.33
2019-02-11T21:30:33.063Z,81.41
2019-02-11T21:33:04.267Z,83.93
2019-02-11T21:35:33.487Z,84.21
2019-02-11T21:38:02.747Z,83.82
2019-02-11T21:40:31.978Z,83.10
2019-02-11T21:43:01.197Z,84.17
2019-02-11T21:45:31.427Z,84.26
2019-02-11T21:48:00.668Z,84.72
2019-02-11T21:50:29.919Z,83.61
2019-02-11T21:52:59.137Z,84.37
2019-02-11T21:55:28.376Z,84.95
2019-02-11T21:57:58.620Z,85.01
2019-02-11T22:00:27.952Z,83.94
2019-02-11T22:02:57.128Z,82.18
2019-02-11T22:05:26.400Z,84.81
2019-02-11T22:07:55.637Z,85.15
2019-02-11T22:10:25.891Z,84.97
2019-02-11T22:12:56.113Z,83.64
2019-02-11T22:15:25.364Z,86.21
2019-02-11T22:17:54.603Z,83.84
2019-02-11T22:20:23.850Z,83.66
2019-02-11T22:22:53.097Z,85.22
2019-02-11T22:25:23.335Z,84.19
2019-02-11T22:27:52.620Z,83.97
2019-02-11T22:30:23.301Z,84.80
2019-02-11T22:32:52.524Z,84.02
2019-02-11T22:35:21.757Z,84.15
2019-02-11T22:37:52.123Z,85.89
2019-02-11T22:40:21.371Z,83.71
2019-02-11T22:42:50.598Z,84.44
2019-02-11T22:45:25.830Z,85.19
2019-02-11T22:47:55.063Z,84.85
2019-02-11T22:50:24.330Z,84.95
2019-02-11T22:52:53.563Z,85.44
2019-02-11T22:55:22.807Z,84.15
2019-02-11T22:57:52.051Z,84.77
2019-02-11T23:00:28.303Z,85.07
2019-02-11T23:02:57.672Z,83.77
2019-02-11T23:05:26.928Z,84.86
2019-02-11T23:07:56.169Z,84.85
2019-02-11T23:10:25.484Z,84.55
2019-02-11T23:12:54.747Z,84.92
2019-02-11T23:15:23.997Z,83.34
2019-02-11T23:17:54.207Z,84.60
2019-02-11T23:20:23.443Z,86.14
2019-02-11T23:22:52.720Z,86.76
2019-02-11T23:25:21.925Z,86.83
2019-02-11T23:27:51.181Z,87.28
2019-02-11T23:30:21.408Z,88.14
2019-02-11T23:32:50.647Z,88.49
2019-02-11T23:35:21.901Z,86.98
2019-02-11T23:37:53.097Z,86.37
2019-02-11T23:40:22.355Z,84.94
2019-02-11T23:42:51.596Z,87.10
2019-02-11T23:45:21.883Z,85.53
2019-02-11T23:47:51.123Z,83.73
2019-02-11T23:50:20.364Z,84.65
2019-02-11T23:52:50.527Z,84.45
2019-02-11T23:55:20.683Z,84.25
2019-02-11T23:57:49.917Z,87.02
